createdAt,value
2019-01-26T00:01:00.933Z,93562.80
2019-01-26T00:03:30.430Z,93567.30
2019-01-26T00:06:00.041Z,93564.15
2019-01-26T00:08:29.351Z,93560.91
2019-01-26T00:10:59.091Z,93555.63
2019-01-26T00:13:30.091Z,93557.03
2019-01-26T00:15:59.869Z,93561.16
2019-01-26T00:18:30.955Z,93565.89
2019-01-26T00:20:59.582Z,93562.69
2019-01-26T00:23:29.039Z,93563.17
2019-01-26T00:25:58.671Z,93566.66
2019-01-26T00:28:28.308Z,93564.25
2019-01-26T00:31:04.309Z,93569.02
2019-01-26T00:33:35.147Z,93566.75
2019-01-26T00:36:04.736Z,93560.13
2019-01-26T00:38:34.470Z,93564.22
2019-01-26T00:41:04.039Z,93582.11
2019-01-26T00:43:33.581Z,93559.23
2019-01-26T00:46:04.731Z,93583.81
2019-01-26T00:48:34.446Z,93578.81
2019-01-26T00:51:04.218Z,93571.52
2019-01-26T00:53:33.927Z,93579.23
2019-01-26T00:56:03.374Z,93577.45
2019-01-26T00:58:33.046Z,93590.02
2019-01-26T01:01:02.752Z,93589.58
2019-01-26T01:03:32.402Z,93586.34
2019-01-26T01:06:02.220Z,93594.70
2019-01-26T01:08:31.858Z,93602.30
2019-01-26T01:11:01.635Z,93604.02
2019-01-26T01:13:31.256Z,93606.56
2019-01-26T01:16:01.013Z,93607.95
2019-01-26T01:18:30.563Z,93611.75
2019-01-26T01:21:01.733Z,93607.73
2019-01-26T01:23:30.073Z,93609.03
2019-01-26T01:25:59.691Z,93614.03
2019-01-26T01:28:29.427Z,93613.94
2019-01-26T01:30:59.054Z,93610.62
2019-01-26T01:33:28.520Z,93608.69
2019-01-26T01:35:58.020Z,93604.42
2019-01-26T01:38:27.585Z,93600.64
2019-01-26T01:40:57.159Z,93607.16
2019-01-26T01:43:26.763Z,93608.64
2019-01-26T01:45:56.531Z,93605.48
2019-01-26T01:48:26.194Z,93608.27
2019-01-26T01:50:55.580Z,93605.07
2019-01-26T01:53:25.594Z,93607.05
2019-01-26T01:55:55.147Z,93606.30
2019-01-26T01:58:25.039Z,93607.30
2019-01-26T02:00:54.620Z,93605.11
2019-01-26T02:03:24.229Z,93599.47
2019-01-26T02:05:53.752Z,93600.37
2019-01-26T02:08:23.231Z,93611.38
2019-01-26T02:10:52.687Z,93609.67
2019-01-26T02:13:22.467Z,93616.82
2019-01-26T02:15:51.952Z,93615.53
2019-01-26T02:18:21.887Z,93622.09
2019-01-26T02:20:51.196Z,93629.56
2019-01-26T02:23:20.878Z,93630.50
2019-01-26T02:25:50.438Z,93616.37
2019-01-26T02:28:20.013Z,93616.58
2019-01-26T02:30:49.604Z,93620.04
2019-01-26T02:33:19.354Z,93625.27
2019-01-26T02:35:49.059Z,93623.67
2019-01-26T02:38:18.528Z,93623.88
2019-01-26T02:40:48.715Z,93626.03
2019-01-26T02:43:18.220Z,93625.40
2019-01-26T02:45:47.891Z,93626.30
2019-01-26T02:48:17.850Z,93637.86
2019-01-26T02:50:47.267Z,93632.53
2019-01-26T02:53:16.751Z,93632.26
2019-01-26T02:55:46.447Z,93635.44
2019-01-26T02:58:16.118Z,93642.61
2019-01-26T03:00:45.633Z,93643.58
2019-01-26T03:03:15.268Z,93653.23
2019-01-26T03:05:44.867Z,93640.43
2019-01-26T03:08:14.561Z,93644.40
2019-01-26T03:10:44.126Z,93641.15
2019-01-26T03:13:13.839Z,93647.75
2019-01-26T03:15:43.583Z,93647.86
2019-01-26T03:18:13.259Z,93654.23
2019-01-26T03:20:42.792Z,93662.70
2019-01-26T03:23:12.523Z,93656.69
2019-01-26T03:25:42.416Z,93659.94
2019-01-26T03:28:11.921Z,93670.39
2019-01-26T03:30:41.331Z,93670.19
2019-01-26T03:33:11.003Z,93671.00
2019-01-26T03:35:40.499Z,93676.69
2019-01-26T03:38:10.105Z,93675.20
2019-01-26T03:40:39.654Z,93671.95
2019-01-26T03:43:09.309Z,93682.58
2019-01-26T03:45:38.971Z,93689.98
2019-01-26T03:48:09.227Z,93691.56
2019-01-26T03:50:38.834Z,93686.74
2019-01-26T03:53:08.720Z,93688.92
2019-01-26T03:55:38.509Z,93691.67
2019-01-26T03:58:08.329Z,93705.06
2019-01-26T04:00:38.025Z,93699.25
2019-01-26T04:03:07.665Z,93696.58
2019-01-26T04:05:37.308Z,93693.56
2019-01-26T04:08:06.937Z,93697.50
2019-01-26T04:10:36.536Z,93702.80
2019-01-26T04:13:06.023Z,93704.17
2019-01-26T04:15:35.740Z,93702.31
2019-01-26T04:18:05.431Z,93704.97
2019-01-26T04:20:34.947Z,93706.88
2019-01-26T04:23:04.796Z,93709.43
2019-01-26T04:25:34.491Z,93718.47
2019-01-26T04:28:04.097Z,93714.33
2019-01-26T04:30:33.719Z,93712.97
2019-01-26T04:33:03.420Z,93723.38
2019-01-26T04:35:33.006Z,93725.75
2019-01-26T04:38:02.762Z,93721.05
2019-01-26T04:40:32.968Z,93719.55
2019-01-26T04:43:02.550Z,93730.69
2019-01-26T04:45:32.297Z,93722.41
2019-01-26T04:48:01.838Z,93731.28
2019-01-26T04:50:31.552Z,93734.03
2019-01-26T04:53:01.100Z,93745.25
2019-01-26T04:55:30.568Z,93749.10
2019-01-26T04:58:00.286Z,93747.99
2019-01-26T05:00:30.020Z,93747.83
2019-01-26T05:02:59.626Z,93755.19
2019-01-26T05:05:29.327Z,93762.56
2019-01-26T05:07:58.990Z,93763.47
2019-01-26T05:10:28.631Z,93768.78
2019-01-26T05:12:58.256Z,93768.39
2019-01-26T05:15:27.970Z,93772.80
2019-01-26T05:17:57.504Z,93775.07
2019-01-26T05:20:27.389Z,93776.16
2019-01-26T05:22:57.030Z,93784.23
2019-01-26T05:25:26.576Z,93783.44
2019-01-26T05:27:56.297Z,93783.64
2019-01-26T05:30:27.770Z,93795.16
2019-01-26T05:32:57.261Z,93793.56
2019-01-26T05:35:27.428Z,93785.60
2019-01-26T05:37:57.175Z,93793.39
2019-01-26T05:40:26.815Z,93795.84
2019-01-26T05:42:56.528Z,93799.96
2019-01-26T05:45:26.166Z,93800.56
2019-01-26T05:47:55.887Z,93809.59
2019-01-26T05:50:26.567Z,93812.19
2019-01-26T05:52:56.074Z,93825.29
2019-01-26T05:55:25.729Z,93831.29
2019-01-26T05:57:55.626Z,93840.62
2019-01-26T06:00:29.104Z,93848.78
2019-01-26T06:02:58.878Z,93850.20
2019-01-26T06:05:28.503Z,93853.84
2019-01-26T06:07:58.151Z,93861.61
2019-01-26T06:10:27.981Z,93859.05
2019-01-26T06:12:58.882Z,93859.73
2019-01-26T06:15:27.398Z,93856.20
2019-01-26T06:17:57.342Z,93861.80
2019-01-26T06:20:26.865Z,93862.29
2019-01-26T06:22:56.600Z,93860.21
2019-01-26T06:25:26.302Z,93863.17
2019-01-26T06:27:55.975Z,93869.56
2019-01-26T06:30:26.652Z,93877.52
2019-01-26T06:32:56.355Z,93882.64
2019-01-26T06:35:26.132Z,93881.72
2019-01-26T06:37:55.736Z,93880.83
2019-01-26T06:40:25.260Z,93881.16
2019-01-26T06:42:55.039Z,93882.84
2019-01-26T06:45:24.799Z,93893.27
2019-01-26T06:47:54.306Z,93893.44
2019-01-26T06:50:26.714Z,93896.27
2019-01-26T06:52:56.307Z,93898.95
2019-01-26T06:55:26.045Z,93902.10
2019-01-26T06:57:55.881Z,93896.39
2019-01-26T07:00:29.747Z,93899.16
2019-01-26T07:02:59.513Z,93896.79
2019-01-26T07:05:38.111Z,93901.38
2019-01-26T07:08:08.023Z,93904.54
2019-01-26T07:10:37.564Z,93906.38
2019-01-26T07:13:07.312Z,93892.62
2019-01-26T07:15:36.736Z,93908.77
2019-01-26T07:18:09.587Z,93916.98
2019-01-26T07:20:36.258Z,93909.31
2019-01-26T07:23:06.040Z,93906.58
2019-01-26T07:25:35.624Z,93897.55
2019-01-26T07:28:05.135Z,93902.50
2019-01-26T07:30:34.895Z,93906.11
2019-01-26T07:33:04.706Z,93907.91
2019-01-26T07:35:34.423Z,93914.79
2019-01-26T07:38:04.233Z,93905.63
2019-01-26T07:40:34.028Z,93909.99
2019-01-26T07:43:03.507Z,93921.09
2019-01-26T07:45:33.347Z,93927.11
2019-01-26T07:48:02.851Z,93927.97
2019-01-26T07:50:32.431Z,93931.27
2019-01-26T07:53:02.171Z,93941.50
2019-01-26T07:55:31.780Z,93942.64
2019-01-26T07:58:01.345Z,93935.63
2019-01-26T08:00:30.999Z,93942.37
2019-01-26T08:03:00.604Z,93926.62
2019-01-26T08:05:30.173Z,93941.16
2019-01-26T08:07:59.722Z,93932.02
2019-01-26T08:10:29.399Z,93934.29
2019-01-26T08:12:58.940Z,93942.44
2019-01-26T08:15:32.215Z,93945.53
2019-01-26T08:18:01.923Z,93949.44
2019-01-26T08:20:31.640Z,93946.02
2019-01-26T08:23:01.151Z,93956.77
2019-01-26T08:25:30.930Z,93955.84
2019-01-26T08:28:00.619Z,93955.17
2019-01-26T08:30:30.156Z,93958.80
2019-01-26T08:32:59.871Z,93962.39
2019-01-26T08:35:29.585Z,93972.48
2019-01-26T08:37:59.435Z,93976.95
2019-01-26T08:40:29.175Z,93991.11
2019-01-26T08:42:58.771Z,93986.03
2019-01-26T08:45:28.451Z,93977.98
2019-01-26T08:47:58.015Z,93977.63
2019-01-26T08:50:27.668Z,93978.06
2019-01-26T08:52:58.995Z,93975.02
2019-01-26T08:55:28.406Z,93980.77
2019-01-26T08:57:58.032Z,93982.58
2019-01-26T09:00:28.536Z,93975.22
2019-01-26T09:05:06.021Z,93985.95
2019-01-26T09:07:35.884Z,93991.33
2019-01-26T09:10:05.696Z,93993.57
2019-01-26T09:12:35.162Z,93998.63
2019-01-26T09:15:05.123Z,93998.97
2019-01-26T09:17:34.689Z,94001.30
2019-01-26T09:20:04.370Z,94016.48
2019-01-26T09:22:34.049Z,94017.37
2019-01-26T09:25:03.952Z,94016.46
2019-01-26T09:27:33.669Z,94009.19
2019-01-26T09:30:03.412Z,94010.58
2019-01-26T09:32:32.845Z,94007.41
2019-01-26T09:35:02.483Z,94004.80
2019-01-26T09:37:32.415Z,94006.05
2019-01-26T09:40:01.884Z,93995.41
2019-01-26T09:42:31.685Z,94005.46
2019-01-26T09:45:01.343Z,93997.22
2019-01-26T09:47:30.909Z,94001.46
2019-01-26T09:50:00.415Z,93998.34
2019-01-26T09:52:30.177Z,93998.98
2019-01-26T09:54:59.948Z,94003.22
2019-01-26T09:57:29.587Z,94006.86
2019-01-26T09:59:59.321Z,94001.30
2019-01-26T10:02:28.950Z,94002.03
2019-01-26T10:04:58.467Z,94012.63
2019-01-26T10:07:28.374Z,94009.17
2019-01-26T10:09:58.095Z,94007.22
2019-01-26T10:12:27.655Z,94011.69
2019-01-26T10:14:57.450Z,94013.16
2019-01-26T10:17:26.917Z,94013.62
2019-01-26T10:19:56.540Z,94019.35
2019-01-26T10:22:26.063Z,94015.20
2019-01-26T10:24:55.433Z,94019.48
2019-01-26T10:27:24.916Z,94015.85
2019-01-26T10:29:54.599Z,94014.82
2019-01-26T10:32:24.340Z,94014.91
2019-01-26T10:34:53.868Z,94018.58
2019-01-26T10:37:25.624Z,94021.62
2019-01-26T10:39:55.279Z,94025.00
2019-01-26T10:42:27.305Z,94026.75
2019-01-26T10:44:57.101Z,94025.47
2019-01-26T10:47:26.663Z,94015.36
2019-01-26T10:49:56.254Z,94029.56
2019-01-26T10:52:25.951Z,94023.47
2019-01-26T10:54:55.651Z,94014.39
2019-01-26T10:57:25.179Z,94027.84
2019-01-26T10:59:54.774Z,94021.07
2019-01-26T11:02:24.387Z,94013.42
2019-01-26T11:04:54.408Z,94016.36
2019-01-26T11:07:24.093Z,94013.23
2019-01-26T11:09:53.668Z,94016.39
2019-01-26T11:12:23.135Z,94009.19
2019-01-26T11:14:52.838Z,94009.30
2019-01-26T11:17:22.431Z,94013.34
2019-01-26T11:19:52.177Z,94008.73
2019-01-26T11:22:21.870Z,94000.61
2019-01-26T11:24:51.579Z,93998.05
2019-01-26T11:27:21.212Z,93999.22
2019-01-26T11:29:51.131Z,93999.61
2019-01-26T11:32:20.690Z,94010.37
2019-01-26T11:34:50.398Z,94009.33
2019-01-26T11:37:20.064Z,94009.86
2019-01-26T11:39:53.767Z,94008.47
2019-01-26T11:42:23.440Z,94004.50
2019-01-26T11:44:58.076Z,94013.11
2019-01-26T11:47:27.574Z,94009.86
2019-01-26T11:49:59.221Z,94014.51
2019-01-26T11:52:28.829Z,94007.70
2019-01-26T11:55:14.007Z,94014.47
2019-01-26T11:57:43.619Z,94016.71
2019-01-26T12:00:29.131Z,94010.23
2019-01-26T12:03:09.928Z,94018.30
2019-01-26T12:05:44.785Z,94022.23
2019-01-26T12:08:14.537Z,94020.75
2019-01-26T12:10:44.023Z,94022.42
2019-01-26T12:13:14.069Z,94017.58
2019-01-26T12:15:43.583Z,94024.47
2019-01-26T12:18:13.243Z,94025.16
2019-01-26T12:20:42.900Z,94037.75
2019-01-26T12:23:12.598Z,94032.55
2019-01-26T12:25:42.266Z,94030.91
2019-01-26T12:28:12.183Z,94029.10
2019-01-26T12:30:41.786Z,94024.15
2019-01-26T12:33:11.313Z,94028.52
2019-01-26T12:35:41.056Z,94029.59
2019-01-26T12:38:10.522Z,94022.72
2019-01-26T12:40:40.231Z,94027.11
2019-01-26T12:43:09.884Z,94019.95
2019-01-26T12:45:39.279Z,94031.92
2019-01-26T12:48:08.604Z,94029.95
2019-01-26T12:50:38.344Z,94028.59
2019-01-26T12:53:07.804Z,94031.36
2019-01-26T12:55:38.893Z,94034.48
2019-01-26T12:58:08.597Z,94025.41
2019-01-26T13:00:38.167Z,94030.92
2019-01-26T13:03:07.827Z,94027.59
2019-01-26T13:05:37.443Z,94032.92
2019-01-26T13:08:06.984Z,94033.09
2019-01-26T13:10:39.858Z,94046.63
2019-01-26T13:13:09.422Z,94045.94
2019-01-26T13:15:39.513Z,94051.94
2019-01-26T13:18:09.127Z,94043.72
2019-01-26T13:20:38.618Z,94050.01
2019-01-26T13:23:08.384Z,94043.76
2019-01-26T13:25:38.124Z,94050.01
2019-01-26T13:28:07.641Z,94056.13
2019-01-26T13:30:37.309Z,94053.45
2019-01-26T13:33:06.972Z,94063.20
2019-01-26T13:35:36.739Z,94061.66
2019-01-26T13:38:06.407Z,94068.93
2019-01-26T13:40:36.284Z,94064.58
2019-01-26T13:43:05.977Z,94069.14
2019-01-26T13:45:35.703Z,94067.10
2019-01-26T13:48:05.451Z,94078.19
2019-01-26T13:50:35.224Z,94079.78
2019-01-26T13:53:05.148Z,94079.52
2019-01-26T13:55:35.077Z,94078.72
2019-01-26T13:58:06.225Z,94086.67
2019-01-26T14:00:35.632Z,94082.36
2019-01-26T14:03:05.403Z,94083.17
2019-01-26T14:05:35.025Z,94080.53
2019-01-26T14:08:04.610Z,94075.08
2019-01-26T14:10:34.410Z,94081.27
2019-01-26T14:13:04.195Z,94092.20
2019-01-26T14:15:33.768Z,94089.23
2019-01-26T14:18:03.435Z,94093.47
2019-01-26T14:20:33.189Z,94101.16
2019-01-26T14:23:02.919Z,94092.59
2019-01-26T14:25:32.635Z,94102.09
2019-01-26T14:28:02.344Z,94113.29
2019-01-26T14:30:35.948Z,94117.33
2019-01-26T14:33:05.855Z,94110.44
2019-01-26T14:35:35.560Z,94119.02
2019-01-26T14:38:10.630Z,94106.14
2019-01-26T14:40:40.383Z,94112.67
2019-01-26T14:43:10.099Z,94120.45
2019-01-26T14:45:39.637Z,94115.37
2019-01-26T14:48:09.293Z,94122.10
2019-01-26T14:50:38.907Z,94120.19
2019-01-26T14:53:08.911Z,94125.43
2019-01-26T14:55:38.955Z,94129.62
2019-01-26T14:58:10.591Z,94123.80
2019-01-26T15:00:40.336Z,94131.22
2019-01-26T15:03:09.924Z,94137.43
2019-01-26T15:05:39.588Z,94132.60
2019-01-26T15:08:09.284Z,94146.64
2019-01-26T15:10:39.058Z,94131.06
2019-01-26T15:13:08.800Z,94139.34
2019-01-26T15:15:38.488Z,94140.36
2019-01-26T15:18:08.372Z,94149.66
2019-01-26T15:20:39.743Z,94152.00
2019-01-26T15:23:09.605Z,94157.05
2019-01-26T15:25:39.066Z,94157.11
2019-01-26T15:28:08.810Z,94160.77
2019-01-26T15:30:40.438Z,94164.98
2019-01-26T15:33:11.189Z,94161.70
2019-01-26T15:35:40.005Z,94166.80
2019-01-26T15:38:10.819Z,94176.73
2019-01-26T15:40:40.580Z,94180.15
2019-01-26T15:46:07.906Z,94174.61
2019-01-26T15:48:37.330Z,94177.41
2019-01-26T15:51:07.062Z,94186.36
2019-01-26T15:53:36.735Z,94186.83
2019-01-26T15:56:06.475Z,94184.52
2019-01-26T15:58:36.010Z,94178.73
2019-01-26T16:01:07.328Z,94186.06
2019-01-26T16:03:36.934Z,94196.02
2019-01-26T16:06:06.829Z,94190.05
2019-01-26T16:08:36.771Z,94200.37
2019-01-26T16:11:06.400Z,94199.56
2019-01-26T16:13:35.998Z,94197.48
2019-01-26T16:16:05.654Z,94204.20
2019-01-26T16:18:35.568Z,94217.62
2019-01-26T16:21:05.277Z,94215.48
2019-01-26T16:23:35.022Z,94216.77
2019-01-26T16:26:04.497Z,94223.95
2019-01-26T16:28:34.147Z,94229.55
2019-01-26T16:31:03.839Z,94235.17
2019-01-26T16:33:33.615Z,94225.33
2019-01-26T16:36:03.107Z,94230.78
2019-01-26T16:38:32.920Z,94240.95
2019-01-26T16:41:02.646Z,94241.98
2019-01-26T16:43:32.385Z,94235.52
2019-01-26T16:46:01.995Z,94232.88
2019-01-26T16:48:31.835Z,94218.56
2019-01-26T16:51:01.575Z,94225.69
2019-01-26T16:53:31.409Z,94229.14
2019-01-26T16:56:01.064Z,94230.30
2019-01-26T16:58:30.692Z,94221.63
2019-01-26T17:01:01.349Z,94214.77
2019-01-26T17:03:30.832Z,94218.70
2019-01-26T17:06:00.429Z,94233.69
2019-01-26T17:08:30.353Z,94235.94
2019-01-26T17:10:59.943Z,94233.54
2019-01-26T17:13:29.676Z,94240.05
2019-01-26T17:15:59.466Z,94235.14
2019-01-26T17:18:28.976Z,94232.22
2019-01-26T17:20:58.595Z,94242.05
2019-01-26T17:23:28.263Z,94235.97
2019-01-26T17:25:57.929Z,94220.31
2019-01-26T17:28:27.407Z,94241.91
2019-01-26T17:30:56.731Z,94240.55
2019-01-26T17:33:26.632Z,94243.05
2019-01-26T17:35:56.329Z,94241.30
2019-01-26T17:38:26.112Z,94241.23
2019-01-26T17:40:55.481Z,94241.09
2019-01-26T17:43:24.945Z,94245.59
2019-01-26T17:45:54.482Z,94252.05
2019-01-26T17:48:24.185Z,94250.88
2019-01-26T17:50:53.912Z,94253.30
2019-01-26T17:53:23.401Z,94249.19
2019-01-26T17:55:52.908Z,94239.71
2019-01-26T17:58:22.660Z,94229.34
2019-01-26T18:00:56.498Z,94239.72
2019-01-26T18:03:26.328Z,94252.48
2019-01-26T18:05:55.947Z,94251.42
2019-01-26T18:08:25.647Z,94255.03
2019-01-26T18:10:55.364Z,94255.24
2019-01-26T18:13:25.065Z,94268.80
2019-01-26T18:15:54.638Z,94274.02
2019-01-26T18:18:24.301Z,94276.70
2019-01-26T18:20:53.890Z,94279.99
2019-01-26T18:23:31.511Z,94292.18
2019-01-26T18:26:01.147Z,94287.70
2019-01-26T18:28:30.654Z,94288.70
2019-01-26T18:31:00.493Z,94283.22
2019-01-26T18:33:30.356Z,94278.02
2019-01-26T18:35:59.835Z,94277.15
2019-01-26T18:38:29.256Z,94284.42
2019-01-26T18:40:58.954Z,94282.09
2019-01-26T18:43:28.565Z,94277.35
2019-01-26T18:45:58.119Z,94280.47
2019-01-26T18:48:27.723Z,94284.85
2019-01-26T18:50:57.299Z,94287.28
2019-01-26T18:53:27.752Z,94276.52
2019-01-26T18:55:57.344Z,94273.02
2019-01-26T18:58:26.827Z,94273.92
2019-01-26T19:00:56.584Z,94274.06
2019-01-26T19:03:33.420Z,94272.64
2019-01-26T19:06:03.285Z,94267.48
2019-01-26T19:08:32.840Z,94268.76
2019-01-26T19:11:02.420Z,94264.68
2019-01-26T19:13:32.414Z,94265.11
2019-01-26T19:16:02.086Z,94267.23
2019-01-26T19:18:31.854Z,94264.14
2019-01-26T19:21:03.263Z,94269.31
2019-01-26T19:23:32.160Z,94268.41
2019-01-26T19:26:01.835Z,94263.64
2019-01-26T19:28:31.584Z,94252.98
2019-01-26T19:31:01.104Z,94258.84
2019-01-26T19:33:30.866Z,94261.46
2019-01-26T19:36:00.804Z,94261.56
2019-01-26T19:38:30.292Z,94263.97
2019-01-26T19:40:59.798Z,94259.09
2019-01-26T19:43:29.431Z,94252.21
2019-01-26T19:45:58.758Z,94249.66
2019-01-26T19:48:28.255Z,94250.31
2019-01-26T19:50:57.839Z,94242.08
2019-01-26T19:53:27.553Z,94246.83
2019-01-26T19:55:57.083Z,94243.89
2019-01-26T19:58:26.767Z,94246.34
2019-01-26T20:00:56.198Z,94245.41
2019-01-26T20:03:25.800Z,94241.10
2019-01-26T20:05:55.319Z,94243.55
2019-01-26T20:08:25.059Z,94235.70
2019-01-26T20:10:54.663Z,94240.38
2019-01-26T20:13:24.541Z,94237.27
2019-01-26T20:15:54.064Z,94237.50
2019-01-26T20:18:24.017Z,94242.80
2019-01-26T20:20:53.709Z,94241.52
2019-01-26T20:23:23.242Z,94237.08
2019-01-26T20:25:52.640Z,94226.08
2019-01-26T20:28:22.537Z,94228.55
2019-01-26T20:30:52.163Z,94231.43
2019-01-26T20:33:21.733Z,94227.98
2019-01-26T20:35:51.210Z,94231.10
2019-01-26T20:38:20.782Z,94233.23
2019-01-26T20:40:50.495Z,94226.18
2019-01-26T20:43:20.152Z,94232.25
2019-01-26T20:45:49.712Z,94232.19
2019-01-26T20:48:19.372Z,94234.09
2019-01-26T20:50:49.137Z,94240.77
2019-01-26T20:53:18.615Z,94247.25
2019-01-26T20:55:48.398Z,94248.81
2019-01-26T20:58:18.063Z,94255.59
2019-01-26T21:00:48.003Z,94256.25
2019-01-26T21:03:18.057Z,94261.26
2019-01-26T21:05:47.791Z,94261.08
2019-01-26T21:08:17.428Z,94257.47
2019-01-26T21:10:47.099Z,94253.05
2019-01-26T21:13:16.821Z,94264.33
2019-01-26T21:15:46.439Z,94266.88
2019-01-26T21:18:16.190Z,94264.09
2019-01-26T21:20:46.732Z,94263.81
2019-01-26T21:23:18.899Z,94262.45
2019-01-26T21:25:48.684Z,94256.81
2019-01-26T21:28:18.371Z,94257.77
2019-01-26T21:30:47.984Z,94260.52
2019-01-26T21:33:17.556Z,94271.17
2019-01-26T21:35:47.221Z,94269.66
2019-01-26T21:38:16.906Z,94271.64
2019-01-26T21:40:46.845Z,94270.76
2019-01-26T21:43:16.544Z,94271.39
2019-01-26T21:45:46.288Z,94274.08
2019-01-26T21:48:15.995Z,94274.08
2019-01-26T21:50:45.459Z,94271.63
2019-01-26T21:53:15.060Z,94271.28
2019-01-26T21:55:44.704Z,94283.54
2019-01-26T21:58:14.268Z,94283.93
2019-01-26T22:00:43.813Z,94283.93
2019-01-26T22:03:13.550Z,94278.22
2019-01-26T22:05:43.107Z,94281.91
2019-01-26T22:08:12.889Z,94277.19
2019-01-26T22:10:42.375Z,94282.45
2019-01-26T22:13:11.931Z,94289.17
2019-01-26T22:15:41.469Z,94280.84
2019-01-26T22:18:11.194Z,94273.66
2019-01-26T22:20:40.765Z,94271.61
2019-01-26T22:23:10.363Z,94276.05
2019-01-26T22:25:40.295Z,94280.98
2019-01-26T22:28:09.995Z,94274.00
2019-01-26T22:30:39.713Z,94282.14
2019-01-26T22:33:09.322Z,94287.07
2019-01-26T22:35:39.052Z,94286.58
2019-01-26T22:38:08.848Z,94285.13
2019-01-26T22:40:38.651Z,94285.80
2019-01-26T22:43:08.391Z,94294.41
2019-01-26T22:45:38.162Z,94300.91
2019-01-26T22:48:07.954Z,94296.30
2019-01-26T22:50:37.531Z,94297.44
2019-01-26T22:53:07.175Z,94302.41
2019-01-26T22:55:37.119Z,94297.91
2019-01-26T22:58:07.140Z,94296.25
2019-01-26T23:01:18.319Z,94285.04
2019-01-26T23:06:03.495Z,94293.17
2019-01-26T23:08:33.436Z,94298.03
2019-01-26T23:11:11.066Z,94306.57
2019-01-26T23:14:10.699Z,94309.08
2019-01-26T23:18:54.627Z,94320.59
2019-01-26T23:21:35.071Z,94324.38
2019-01-26T23:24:43.303Z,94326.70
2019-01-26T23:27:31.645Z,94333.01
2019-01-26T23:31:15.147Z,94332.05
2019-01-26T23:33:45.383Z,94324.10
2019-01-26T23:36:15.395Z,94330.23
2019-01-26T23:38:45.155Z,94334.23
2019-01-26T23:41:15.006Z,94314.26
2019-01-26T23:43:44.730Z,94315.54
2019-01-26T23:46:14.283Z,94314.15
2019-01-26T23:48:44.013Z,94318.28
2019-01-26T23:51:13.731Z,94313.55
2019-01-26T23:53:43.392Z,94307.34
2019-01-26T23:56:13.311Z,94313.73
2019-01-26T23:58:42.996Z,94311.29
